createdAt,value
2018-09-12T00:00:08.801Z,16.40
2018-09-12T00:02:36.364Z,25.27
2018-09-12T00:05:04.031Z,16.80
2018-09-12T00:07:31.593Z,23.53
2018-09-12T00:09:59.124Z,17.43
2018-09-12T00:12:26.668Z,20.23
2018-09-12T00:14:54.537Z,21.80
2018-09-12T00:17:22.100Z,20.40
2018-09-12T00:19:49.640Z,13.33
2018-09-12T00:22:17.269Z,16.17
2018-09-12T00:24:44.823Z,23.50
2018-09-12T00:27:12.419Z,17.23
2018-09-12T00:29:39.959Z,18.20
2018-09-12T00:32:07.523Z,17.93
2018-09-12T00:34:35.065Z,20.10
2018-09-12T00:37:02.688Z,16.23
2018-09-12T00:39:30.928Z,16.33
2018-09-12T00:41:58.537Z,21.90
2018-09-12T00:44:26.073Z,18.63
2018-09-12T00:46:53.647Z,17.10
2018-09-12T00:49:21.160Z,13.33
2018-09-12T00:51:48.749Z,16.10
2018-09-12T00:54:16.452Z,18.17
2018-09-12T00:56:43.955Z,16.70
2018-09-12T00:59:11.482Z,19.40
2018-09-12T01:01:39.060Z,14.70
2018-09-12T01:04:06.841Z,27.23
2018-09-12T01:06:34.384Z,20.10
2018-09-12T01:09:01.924Z,14.40
2018-09-12T01:11:29.600Z,15.60
2018-09-12T01:13:57.121Z,19.87
2018-09-12T01:16:24.642Z,16.90
2018-09-12T01:18:52.276Z,17.90
2018-09-12T01:21:19.820Z,25.87
2018-09-12T01:23:47.382Z,16.27
2018-09-12T01:26:14.894Z,18.43
2018-09-12T01:28:42.434Z,17.67
2018-09-12T01:31:10.036Z,22.37
2018-09-12T01:33:37.708Z,15.37
2018-09-12T01:36:05.260Z,16.23
2018-09-12T01:38:32.853Z,23.30
2018-09-12T01:41:00.422Z,18.50
2018-09-12T01:43:27.962Z,17.33
2018-09-12T01:45:55.503Z,14.13
2018-09-12T01:48:23.032Z,25.87
2018-09-12T01:50:50.558Z,21.70
2018-09-12T01:53:18.153Z,16.90
2018-09-12T01:55:45.749Z,20.93
2018-09-12T01:58:13.272Z,16.23
2018-09-12T02:00:41.624Z,17.10
2018-09-12T02:03:09.661Z,23.27
2018-09-12T02:05:37.861Z,13.53
2018-09-12T02:08:05.565Z,17.20
2018-09-12T02:10:33.193Z,16.20
2018-09-12T02:13:00.719Z,19.77
2018-09-12T02:15:28.351Z,17.83
2018-09-12T02:17:55.887Z,16.33
2018-09-12T02:20:23.457Z,14.63
2018-09-12T02:22:50.957Z,16.00
2018-09-12T02:25:18.549Z,26.10
2018-09-12T02:27:46.142Z,15.03
2018-09-12T02:30:13.731Z,19.03
2018-09-12T02:32:41.470Z,18.73
2018-09-12T02:35:09.019Z,16.97
2018-09-12T02:37:36.702Z,25.63
2018-09-12T02:40:04.966Z,18.20
2018-09-12T02:42:32.573Z,17.93
2018-09-12T02:45:00.117Z,25.33
2018-09-12T02:47:33.219Z,15.30
2018-09-12T02:50:00.788Z,18.90
2018-09-12T02:52:28.357Z,16.00
2018-09-12T02:54:55.919Z,17.93
2018-09-12T02:57:23.469Z,20.83
2018-09-12T02:59:51.011Z,17.20
2018-09-12T03:02:18.689Z,22.90
2018-09-12T03:04:51.864Z,18.67
2018-09-12T03:07:19.414Z,23.83
2018-09-12T03:09:47.000Z,19.27
2018-09-12T03:12:14.851Z,18.00
2018-09-12T03:14:42.423Z,19.67
2018-09-12T03:17:10.539Z,22.63
2018-09-12T03:19:38.163Z,26.17
2018-09-12T03:22:06.097Z,19.60
2018-09-12T03:24:33.825Z,18.80
2018-09-12T03:27:01.433Z,20.40
2018-09-12T03:29:28.968Z,21.30
2018-09-12T03:31:56.516Z,15.80
2018-09-12T03:34:24.083Z,17.13
2018-09-12T03:36:51.619Z,18.50
2018-09-12T03:39:19.193Z,19.00
2018-09-12T03:41:46.744Z,24.10
2018-09-12T03:44:14.329Z,16.30
2018-09-12T03:46:42.047Z,20.73
2018-09-12T03:49:10.211Z,15.20
2018-09-12T03:51:37.713Z,17.00
2018-09-12T03:54:05.305Z,20.67
2018-09-12T03:56:32.845Z,15.17
2018-09-12T03:59:00.418Z,15.90
2018-09-12T04:01:27.938Z,17.20
2018-09-12T04:03:55.477Z,13.33
2018-09-12T04:06:23.017Z,14.23
2018-09-12T04:08:50.605Z,16.47
2018-09-12T04:11:18.163Z,22.27
2018-09-12T04:13:45.731Z,17.33
2018-09-12T04:16:13.268Z,17.33
2018-09-12T04:18:40.880Z,18.10
2018-09-12T04:21:08.407Z,15.00
2018-09-12T04:23:36.036Z,17.60
2018-09-12T04:26:03.674Z,18.93
2018-09-12T04:28:31.217Z,14.10
2018-09-12T04:30:58.786Z,16.17
2018-09-12T04:33:26.325Z,15.03
2018-09-12T04:35:53.863Z,18.07
2018-09-12T04:38:21.450Z,13.97
2018-09-12T04:40:49.110Z,19.90
2018-09-12T04:43:16.870Z,15.80
2018-09-12T04:45:44.542Z,15.13
2018-09-12T04:48:12.080Z,14.00
2018-09-12T04:50:39.634Z,15.27
2018-09-12T04:53:07.258Z,21.33
2018-09-12T04:55:34.840Z,14.57
2018-09-12T04:58:02.510Z,14.63
2018-09-12T05:00:30.052Z,20.00
2018-09-12T05:02:57.664Z,15.57
2018-09-12T05:05:25.224Z,17.97
2018-09-12T05:07:52.776Z,16.83
2018-09-12T05:10:20.371Z,16.00
2018-09-12T05:12:47.899Z,16.63
2018-09-12T05:15:15.455Z,16.87
2018-09-12T05:17:43.003Z,15.67
2018-09-12T05:20:10.517Z,15.50
2018-09-12T05:22:38.160Z,15.20
2018-09-12T05:25:06.091Z,15.77
2018-09-12T05:27:33.876Z,26.77
2018-09-12T05:30:01.584Z,30.97
2018-09-12T05:32:29.074Z,21.63
2018-09-12T05:34:56.796Z,17.70
2018-09-12T05:37:24.448Z,20.37
2018-09-12T05:39:52.138Z,21.67
2018-09-12T05:42:19.691Z,22.90
2018-09-12T05:44:47.251Z,21.37
2018-09-12T05:47:14.807Z,21.23
2018-09-12T05:49:42.341Z,19.23
2018-09-12T05:52:09.893Z,19.10
2018-09-12T05:54:37.419Z,30.50
2018-09-12T05:57:05.009Z,21.97
2018-09-12T05:59:32.593Z,23.00
2018-09-12T06:02:00.139Z,21.30
2018-09-12T06:04:27.684Z,28.00
2018-09-12T06:06:55.284Z,20.40
2018-09-12T06:09:22.824Z,19.50
2018-09-12T06:11:50.389Z,26.97
2018-09-12T06:14:17.932Z,17.03
2018-09-12T06:16:45.471Z,21.40
2018-09-12T06:19:13.070Z,19.47
2018-09-12T06:21:40.617Z,18.07
2018-09-12T06:24:08.235Z,20.03
2018-09-12T06:26:35.836Z,15.00
2018-09-12T06:29:03.409Z,18.77
2018-09-12T06:31:30.939Z,17.17
2018-09-12T06:33:58.467Z,18.70
2018-09-12T06:36:25.972Z,18.00
2018-09-12T06:38:53.516Z,22.87
2018-09-12T06:41:21.150Z,21.57
2018-09-12T06:43:49.142Z,17.60
2018-09-12T06:46:16.684Z,17.70
2018-09-12T06:48:44.292Z,13.27
2018-09-12T06:51:11.847Z,12.03
2018-09-12T06:53:39.462Z,15.10
2018-09-12T06:56:07.186Z,15.20
2018-09-12T06:58:34.830Z,17.30
2018-09-12T07:01:02.448Z,15.87
2018-09-12T07:03:29.975Z,11.80
2018-09-12T07:05:57.637Z,11.00
2018-09-12T07:08:25.196Z,15.53
2018-09-12T07:10:52.749Z,26.70
2018-09-12T07:13:20.355Z,14.00
2018-09-12T07:15:47.925Z,17.47
2018-09-12T07:18:15.478Z,14.20
2018-09-12T07:20:43.107Z,14.77
2018-09-12T07:23:10.720Z,12.30
2018-09-12T07:25:38.285Z,15.13
2018-09-12T07:28:05.849Z,16.63
2018-09-12T07:30:33.497Z,16.60
2018-09-12T07:33:00.997Z,12.90
2018-09-12T07:35:28.619Z,15.97
2018-09-12T07:37:56.178Z,14.30
2018-09-12T07:40:23.755Z,17.33
2018-09-12T07:42:51.307Z,17.73
2018-09-12T07:45:18.843Z,14.50
2018-09-12T07:47:46.381Z,15.57
2018-09-12T07:50:13.961Z,14.80
2018-09-12T07:52:41.525Z,15.00
2018-09-12T07:55:09.153Z,16.90
2018-09-12T07:57:36.692Z,17.50
2018-09-12T08:00:05.022Z,21.57
2018-09-12T08:02:32.578Z,20.93
2018-09-12T08:05:00.193Z,21.07
2018-09-12T08:07:27.725Z,12.43
2018-09-12T08:09:55.310Z,12.77
2018-09-12T08:12:22.954Z,10.13
2018-09-12T08:14:50.392Z,16.77
2018-09-12T08:17:17.957Z,16.40
2018-09-12T08:19:45.470Z,14.30
2018-09-12T08:22:13.027Z,17.07
2018-09-12T08:24:40.562Z,15.47
2018-09-12T08:27:08.103Z,22.43
2018-09-12T08:29:35.612Z,23.10
2018-09-12T08:32:03.151Z,16.70
2018-09-12T08:34:30.689Z,10.67
2018-09-12T08:36:58.324Z,14.10
2018-09-12T08:39:25.846Z,13.10
2018-09-12T08:41:53.433Z,13.47
2018-09-12T08:44:20.967Z,15.80
2018-09-12T08:46:48.570Z,10.80
2018-09-12T08:49:16.162Z,18.93
2018-09-12T08:51:43.684Z,13.53
2018-09-12T08:54:11.276Z,10.00
2018-09-12T08:56:38.860Z,11.53
2018-09-12T08:59:06.418Z,13.83
2018-09-12T09:01:34.056Z,10.47
2018-09-12T09:04:01.612Z,11.23
2018-09-12T09:06:29.197Z,9.97
2018-09-12T09:08:56.815Z,11.80
2018-09-12T09:11:24.356Z,8.90
2018-09-12T09:13:52.016Z,9.20
2018-09-12T09:16:19.586Z,12.67
2018-09-12T09:18:47.108Z,11.03
2018-09-12T09:21:14.732Z,8.50
2018-09-12T09:23:42.344Z,9.97
2018-09-12T09:26:09.818Z,8.37
2018-09-12T09:28:37.336Z,9.07
2018-09-12T09:31:05.066Z,7.87
2018-09-12T09:33:32.624Z,7.07
2018-09-12T09:36:00.144Z,10.10
2018-09-12T09:38:27.701Z,5.20
2018-09-12T09:40:55.268Z,10.40
2018-09-12T09:43:22.910Z,7.93
2018-09-12T09:45:50.458Z,7.63
2018-09-12T09:48:18.055Z,7.70
2018-09-12T09:50:45.766Z,8.47
2018-09-12T09:53:13.277Z,6.90
2018-09-12T09:55:40.848Z,7.00
2018-09-12T09:58:08.373Z,11.33
2018-09-12T10:00:41.450Z,8.60
2018-09-12T10:03:14.579Z,7.03
2018-09-12T10:05:47.830Z,8.63
2018-09-12T10:08:21.038Z,8.13
2018-09-12T10:10:48.624Z,10.40
2018-09-12T10:13:16.150Z,7.07
2018-09-12T10:15:43.708Z,7.97
2018-09-12T10:18:11.233Z,8.60
2018-09-12T10:20:38.883Z,10.70
2018-09-12T10:23:06.441Z,7.67
2018-09-12T10:25:34.087Z,8.73
2018-09-12T10:28:01.638Z,15.53
2018-09-12T10:30:29.201Z,7.63
2018-09-12T10:32:56.751Z,8.73
2018-09-12T10:35:24.411Z,12.50
2018-09-12T10:37:51.984Z,6.97
2018-09-12T10:40:19.707Z,9.27
2018-09-12T10:42:47.601Z,5.83
2018-09-12T10:45:15.150Z,8.47
2018-09-12T10:47:42.735Z,7.30
2018-09-12T10:50:10.274Z,6.40
2018-09-12T10:52:37.810Z,11.40
2018-09-12T10:55:05.416Z,6.97
2018-09-12T10:57:32.964Z,7.80
2018-09-12T11:00:00.501Z,6.80
2018-09-12T11:02:28.076Z,8.53
2018-09-12T11:04:55.600Z,9.23
2018-09-12T11:07:23.166Z,11.17
2018-09-12T11:09:50.743Z,8.90
2018-09-12T11:12:18.408Z,12.53
2018-09-12T11:14:45.992Z,11.23
2018-09-12T11:17:13.640Z,7.17
2018-09-12T11:19:41.148Z,8.40
2018-09-12T11:22:08.694Z,7.97
2018-09-12T11:24:36.222Z,7.83
2018-09-12T11:27:03.840Z,9.90
2018-09-12T11:29:31.409Z,8.17
2018-09-12T11:31:59.012Z,8.70
2018-09-12T11:34:26.540Z,5.53
2018-09-12T11:36:54.098Z,6.40
2018-09-12T11:39:21.749Z,10.30
2018-09-12T11:41:49.398Z,5.87
2018-09-12T11:44:16.914Z,5.70
2018-09-12T11:46:44.478Z,7.53
2018-09-12T11:49:12.146Z,7.53
2018-09-12T11:51:39.759Z,8.70
2018-09-12T11:54:07.332Z,8.90
2018-09-12T11:56:34.917Z,5.77
2018-09-12T11:59:02.471Z,7.30
2018-09-12T12:01:30.047Z,6.10
2018-09-12T12:03:57.610Z,6.13
2018-09-12T12:06:25.162Z,7.30
2018-09-12T12:08:52.759Z,7.47
2018-09-12T12:11:20.313Z,4.77
2018-09-12T12:13:47.879Z,6.43
2018-09-12T12:16:15.465Z,7.73
2018-09-12T12:18:43.061Z,4.77
2018-09-12T12:21:10.622Z,5.87
2018-09-12T12:23:38.186Z,5.97
2018-09-12T12:26:06.065Z,6.07
2018-09-12T12:28:33.642Z,7.27
2018-09-12T12:31:01.196Z,8.13
2018-09-12T12:33:28.740Z,6.20
2018-09-12T12:35:56.281Z,6.30
2018-09-12T12:38:23.888Z,8.07
2018-09-12T12:40:51.526Z,8.97
2018-09-12T12:43:19.058Z,6.83
2018-09-12T12:45:46.649Z,6.67
2018-09-12T12:48:14.182Z,4.43
2018-09-12T12:50:41.739Z,7.60
2018-09-12T12:53:09.345Z,8.43
2018-09-12T12:55:36.953Z,4.30
2018-09-12T12:58:04.603Z,5.90
2018-09-12T13:00:32.171Z,9.60
2018-09-12T13:02:59.685Z,6.07
2018-09-12T13:05:27.330Z,5.30
2018-09-12T13:07:54.823Z,4.77
2018-09-12T13:10:22.367Z,5.47
2018-09-12T13:12:49.933Z,4.47
2018-09-12T13:15:17.487Z,4.37
2018-09-12T13:17:45.009Z,7.23
2018-09-12T13:20:12.543Z,8.33
2018-09-12T13:22:40.182Z,6.60
2018-09-12T13:25:07.750Z,7.07
2018-09-12T13:27:35.374Z,9.27
2018-09-12T13:30:02.911Z,6.20
2018-09-12T13:32:30.658Z,7.53
2018-09-12T13:34:58.199Z,5.00
2018-09-12T13:37:25.756Z,14.20
2018-09-12T13:39:53.312Z,7.40
2018-09-12T13:42:20.842Z,6.23
2018-09-12T13:44:48.778Z,6.07
2018-09-12T13:47:16.314Z,4.90
2018-09-12T13:49:43.870Z,5.87
2018-09-12T13:52:11.442Z,7.57
2018-09-12T13:54:38.970Z,9.53
2018-09-12T13:57:06.634Z,8.00
2018-09-12T13:59:34.204Z,8.20
2018-09-12T14:02:01.762Z,6.83
2018-09-12T14:04:29.322Z,5.43
2018-09-12T14:06:56.974Z,10.87
2018-09-12T14:09:24.512Z,5.80
2018-09-12T14:11:52.072Z,5.53
2018-09-12T14:14:19.727Z,10.20
2018-09-12T14:16:47.265Z,6.77
2018-09-12T14:19:14.802Z,5.50
2018-09-12T14:21:42.380Z,6.40
2018-09-12T14:24:09.938Z,8.60
2018-09-12T14:26:37.446Z,5.40
2018-09-12T14:29:05.002Z,5.33
2018-09-12T14:31:32.559Z,7.83
2018-09-12T14:34:00.124Z,6.73
2018-09-12T14:36:27.675Z,6.27
2018-09-12T14:38:55.294Z,7.87
2018-09-12T14:41:22.804Z,7.43
2018-09-12T14:43:50.367Z,7.37
2018-09-12T14:46:18.781Z,5.73
2018-09-12T14:48:46.358Z,5.63
2018-09-12T14:51:13.947Z,7.23
2018-09-12T14:53:41.539Z,6.13
2018-09-12T14:56:09.100Z,8.60
2018-09-12T14:58:36.704Z,5.40
2018-09-12T15:01:04.309Z,5.20
2018-09-12T15:03:31.880Z,4.77
2018-09-12T15:05:59.435Z,8.17
2018-09-12T15:08:26.977Z,8.30
2018-09-12T15:10:54.613Z,5.03
2018-09-12T15:13:22.207Z,7.13
2018-09-12T15:15:49.745Z,8.20
2018-09-12T15:18:17.310Z,3.67
2018-09-12T15:20:44.878Z,4.60
2018-09-12T15:23:12.398Z,10.13
2018-09-12T15:25:39.992Z,4.83
2018-09-12T15:28:07.614Z,9.10
2018-09-12T15:30:35.158Z,4.33
2018-09-12T15:33:02.747Z,5.50
2018-09-12T15:35:30.336Z,6.30
2018-09-12T15:37:58.082Z,13.50
2018-09-12T15:40:25.854Z,10.70
2018-09-12T15:42:53.568Z,7.20
2018-09-12T15:45:21.216Z,8.93
2018-09-12T15:47:48.842Z,11.70
2018-09-12T15:50:16.464Z,6.93
2018-09-12T15:52:44.250Z,9.33
2018-09-12T15:55:11.986Z,9.50
2018-09-12T15:57:39.584Z,8.27
2018-09-12T16:00:07.205Z,8.43
2018-09-12T16:02:34.822Z,5.60
2018-09-12T16:05:02.454Z,5.60
2018-09-12T16:07:30.033Z,7.33
2018-09-12T16:09:57.556Z,5.47
2018-09-12T16:12:25.115Z,5.67
2018-09-12T16:14:52.665Z,12.43
2018-09-12T16:17:20.272Z,5.90
2018-09-12T16:19:48.225Z,4.63
2018-09-12T16:22:15.890Z,9.30
2018-09-12T16:24:43.491Z,7.50
2018-09-12T16:27:11.090Z,6.10
2018-09-12T16:29:38.735Z,8.43
2018-09-12T16:32:06.361Z,10.40
2018-09-12T16:34:33.927Z,5.97
2018-09-12T16:37:01.618Z,10.07
2018-09-12T16:39:29.229Z,10.83
2018-09-12T16:41:56.873Z,5.77
2018-09-12T16:44:24.476Z,11.20
2018-09-12T16:46:52.058Z,7.43
2018-09-12T16:49:19.670Z,9.87
2018-09-12T16:51:47.250Z,7.57
2018-09-12T16:54:15.033Z,8.03
2018-09-12T16:56:43.113Z,6.93
2018-09-12T16:59:10.831Z,6.37
2018-09-12T17:01:38.425Z,7.10
2018-09-12T17:04:06.051Z,9.10
2018-09-12T17:06:33.657Z,10.17
2018-09-12T17:09:01.285Z,10.43
2018-09-12T17:11:28.893Z,6.40
2018-09-12T17:13:56.535Z,6.83
2018-09-12T17:16:24.116Z,7.03
2018-09-12T17:18:51.816Z,7.93
2018-09-12T17:21:19.431Z,9.60
2018-09-12T17:23:47.053Z,10.43
2018-09-12T17:26:14.592Z,13.73
2018-09-12T17:28:42.235Z,8.37
2018-09-12T17:31:09.961Z,10.70
2018-09-12T17:33:37.631Z,10.40
2018-09-12T17:36:05.281Z,9.47
2018-09-12T17:38:33.164Z,8.40
2018-09-12T17:41:00.977Z,11.10
2018-09-12T17:43:28.656Z,7.30
2018-09-12T17:45:56.277Z,8.50
2018-09-12T17:48:24.071Z,11.73
2018-09-12T17:50:51.966Z,9.17
2018-09-12T17:53:19.598Z,10.63
2018-09-12T17:55:47.357Z,7.33
2018-09-12T17:58:15.026Z,9.63
2018-09-12T18:00:42.795Z,7.10
2018-09-12T18:03:10.405Z,11.03
2018-09-12T18:05:38.132Z,12.47
2018-09-12T18:08:05.887Z,9.43
2018-09-12T18:10:33.600Z,9.30
2018-09-12T18:13:01.247Z,7.57
2018-09-12T18:15:28.917Z,7.00
2018-09-12T18:17:56.541Z,8.07
2018-09-12T18:20:24.172Z,11.20
2018-09-12T18:22:52.006Z,10.50
2018-09-12T18:25:20.959Z,10.10
2018-09-12T18:27:49.036Z,7.73
2018-09-12T18:30:16.911Z,10.73
2018-09-12T18:32:44.611Z,11.37
2018-09-12T18:35:12.657Z,10.90
2018-09-12T18:37:40.331Z,11.30
2018-09-12T18:40:10.081Z,10.73
2018-09-12T18:42:37.846Z,11.00
2018-09-12T18:45:05.583Z,7.77
2018-09-12T18:47:33.772Z,10.50
2018-09-12T18:50:01.476Z,13.47
2018-09-12T18:52:29.184Z,10.00
2018-09-12T18:54:56.930Z,10.07
2018-09-12T18:57:25.879Z,16.63
2018-09-12T18:59:53.562Z,12.63
2018-09-12T19:02:21.271Z,10.70
2018-09-12T19:04:48.964Z,20.00
2018-09-12T19:07:16.872Z,13.33
2018-09-12T19:09:45.027Z,14.73
2018-09-12T19:12:13.697Z,10.50
2018-09-12T19:14:41.345Z,10.30
2018-09-12T19:17:09.924Z,15.37
2018-09-12T19:19:37.984Z,12.40
2018-09-12T19:22:06.008Z,10.93
2018-09-12T19:24:33.779Z,10.37
2018-09-12T19:27:01.804Z,19.60
2018-09-12T19:29:29.523Z,12.10
2018-09-12T19:31:57.243Z,9.70
2018-09-12T19:34:25.887Z,13.90
2018-09-12T19:36:53.566Z,11.47
2018-09-12T19:39:22.078Z,14.07
2018-09-12T19:41:50.409Z,15.60
2018-09-12T19:44:18.144Z,13.33
2018-09-12T19:46:48.141Z,15.27
2018-09-12T19:49:15.845Z,22.93
2018-09-12T19:51:43.457Z,15.80
2018-09-12T19:54:11.126Z,16.87
2018-09-12T19:56:38.776Z,17.10
2018-09-12T19:59:06.468Z,14.23
2018-09-12T20:01:34.167Z,13.87
2018-09-12T20:04:01.832Z,18.90
2018-09-12T20:06:30.425Z,17.03
2018-09-12T20:08:58.129Z,14.80
2018-09-12T20:11:25.817Z,21.07
2018-09-12T20:13:53.542Z,15.93
2018-09-12T20:16:21.180Z,15.53
2018-09-12T20:18:49.791Z,14.30
2018-09-12T20:21:18.061Z,13.33
2018-09-12T20:23:45.823Z,18.93
2018-09-12T20:26:13.415Z,17.60
2018-09-12T20:28:46.809Z,16.33
2018-09-12T20:31:14.432Z,19.47
2018-09-12T20:33:42.039Z,13.40
2018-09-12T20:36:09.650Z,17.53
2018-09-12T20:38:37.273Z,24.80
2018-09-12T20:41:05.019Z,17.67
2018-09-12T20:43:33.034Z,24.13
2018-09-12T20:46:00.737Z,14.50
2018-09-12T20:48:28.506Z,23.10
2018-09-12T20:50:56.142Z,18.73
2018-09-12T20:53:23.944Z,19.90
2018-09-12T20:55:51.554Z,22.10
2018-09-12T20:58:19.152Z,20.87
2018-09-12T21:00:46.700Z,26.23
2018-09-12T21:03:14.262Z,25.10
2018-09-12T21:05:41.860Z,23.53
2018-09-12T21:08:09.414Z,26.53
2018-09-12T21:10:37.002Z,15.30
2018-09-12T21:13:04.582Z,22.97
2018-09-12T21:15:32.138Z,22.10
2018-09-12T21:17:59.717Z,21.30
2018-09-12T21:20:27.231Z,26.63
2018-09-12T21:22:54.815Z,20.63
2018-09-12T21:25:22.420Z,25.50
2018-09-12T21:27:50.164Z,25.33
2018-09-12T21:30:18.313Z,20.37
2018-09-12T21:32:46.010Z,21.10
2018-09-12T21:35:13.541Z,30.63
2018-09-12T21:37:41.114Z,25.93
2018-09-12T21:40:08.654Z,33.73
2018-09-12T21:42:36.229Z,23.30
2018-09-12T21:45:03.957Z,31.67
2018-09-12T21:47:31.559Z,27.50
2018-09-12T21:49:59.093Z,25.30
2018-09-12T21:52:26.666Z,28.10
2018-09-12T21:54:54.191Z,24.30
2018-09-12T21:57:21.747Z,22.70
2018-09-12T21:59:50.139Z,27.40
2018-09-12T22:02:17.783Z,23.87
2018-09-12T22:04:45.433Z,25.00
2018-09-12T22:07:13.065Z,23.87
2018-09-12T22:09:40.606Z,26.23
2018-09-12T22:12:08.201Z,25.60
2018-09-12T22:14:35.770Z,24.40
2018-09-12T22:17:03.330Z,23.93
2018-09-12T22:19:30.910Z,23.73
2018-09-12T22:21:58.529Z,20.37
2018-09-12T22:24:26.101Z,24.57
2018-09-12T22:26:53.743Z,21.60
2018-09-12T22:29:21.301Z,19.50
2018-09-12T22:31:48.907Z,25.97
2018-09-12T22:34:16.480Z,23.80
2018-09-12T22:36:44.062Z,17.27
2018-09-12T22:39:11.795Z,22.70
2018-09-12T22:41:39.777Z,26.30
2018-09-12T22:44:07.362Z,18.63
2018-09-12T22:46:34.935Z,28.50
2018-09-12T22:49:02.491Z,20.07
2018-09-12T22:51:30.030Z,24.83
2018-09-12T22:53:57.694Z,26.97
2018-09-12T22:56:25.275Z,32.27
2018-09-12T22:58:53.041Z,16.80
2018-09-12T23:01:20.583Z,19.20
2018-09-12T23:03:48.140Z,20.03
2018-09-12T23:06:15.705Z,22.47
2018-09-12T23:08:43.652Z,22.73
2018-09-12T23:11:11.270Z,21.03
2018-09-12T23:13:38.819Z,25.50
2018-09-12T23:16:06.362Z,16.43
2018-09-12T23:18:33.959Z,19.03
2018-09-12T23:21:01.623Z,15.93
2018-09-12T23:23:29.154Z,16.77
2018-09-12T23:25:56.778Z,18.40
2018-09-12T23:28:24.418Z,28.13
2018-09-12T23:30:51.952Z,14.03
2018-09-12T23:33:19.472Z,16.63
2018-09-12T23:35:47.199Z,21.00
2018-09-12T23:38:14.700Z,14.70
2018-09-12T23:40:42.233Z,19.27
2018-09-12T23:43:09.766Z,15.80
2018-09-12T23:45:37.337Z,15.77
2018-09-12T23:48:04.897Z,15.23
2018-09-12T23:50:32.415Z,15.50
2018-09-12T23:53:00.003Z,14.87
2018-09-12T23:55:27.590Z,19.57
2018-09-12T23:57:55.144Z,18.33
